Time;durP1;ratioP1;P1;durP2;ratioP2;P2;SDS_P1;SDS_P2;PMS_P1;PMS_P2;Temp;Humidity;BMP_temperature;BMP_pressure;BME280_temperature;BME280_humidity;BME280_pressure;Samples;Min_cycle;Max_cycle;Signal;HPM_P1;HPM_P2
2022/07/25 00:01:30;;;;;;;6.32;5.82;;;23.90;54.20;;;;;;4967042;28;20428;-74
2022/07/25 00:03:57;;;;;;;6.60;6.10;;;23.90;54.80;;;;;;4968186;28;20895;-75
2022/07/25 00:06:24;;;;;;;5.88;5.47;;;23.90;55.00;;;;;;4966667;28;20506;-75
2022/07/25 00:08:51;;;;;;;6.32;5.82;;;23.80;55.60;;;;;;4968348;28;20495;-75
2022/07/25 00:11:18;;;;;;;6.10;5.70;;;23.80;55.10;;;;;;4966995;28;20446;-74
2022/07/25 00:13:46;;;;;;;6.57;6.07;;;23.80;55.10;;;;;;4968189;28;20430;-74
2022/07/25 00:16:13;;;;;;;6.33;5.83;;;23.70;56.10;;;;;;4967779;28;20434;-74
2022/07/25 00:18:40;;;;;;;6.65;6.20;;;23.70;55.90;;;;;;4967704;28;20810;-74
2022/07/25 00:21:06;;;;;;;6.40;5.90;;;23.60;56.50;;;;;;4965396;28;20426;-74
2022/07/25 00:23:33;;;;;;;6.43;5.93;;;23.60;56.20;;;;;;4968149;28;20450;-74
2022/07/25 00:26:00;;;;;;;6.60;6.10;;;23.60;56.70;;;;;;4967833;28;20416;-74
2022/07/25 00:28:27;;;;;;;7.10;6.50;;;23.50;56.40;;;;;;4967802;28;20797;-74
2022/07/25 00:30:55;;;;;;;6.20;5.70;;;23.50;56.10;;;;;;4966693;28;20428;-74
2022/07/25 00:33:22;;;;;;;6.28;5.78;;;23.50;55.90;;;;;;4968145;28;20870;-75
2022/07/25 00:35:49;;;;;;;6.50;5.90;;;23.50;55.00;;;;;;4965986;28;21160;-74
2022/07/25 00:38:16;;;;;;;6.60;6.10;;;23.40;54.30;;;;;;4967049;28;20690;-74
2022/07/25 00:40:43;;;;;;;6.40;6.00;;;23.40;55.50;;;;;;4966665;28;20432;-75
2022/07/25 00:43:10;;;;;;;7.10;6.50;;;23.30;55.20;;;;;;4967724;28;20519;-74
2022/07/25 00:45:37;;;;;;;6.50;6.00;;;23.30;56.00;;;;;;4967310;28;20442;-75
2022/07/25 00:48:06;;;;;;;6.30;5.90;;;23.30;55.50;;;;;;4967600;28;20423;-74
2022/07/25 00:50:33;;;;;;;6.57;5.97;;;23.20;55.40;;;;;;4964953;28;20420;-74
2022/07/25 00:52:59;;;;;;;6.53;6.03;;;23.20;55.80;;;;;;4967213;28;20447;-74
2022/07/25 00:55:27;;;;;;;6.72;6.22;;;23.20;55.90;;;;;;4967245;28;20510;-74
2022/07/25 00:57:54;;;;;;;6.70;6.20;;;23.20;55.00;;;;;;4967695;28;20827;-74
2022/07/25 01:00:21;;;;;;;7.00;6.40;;;23.10;55.10;;;;;;4966292;28;20450;-73
2022/07/25 01:02:47;;;;;;;6.50;5.90;;;23.10;54.90;;;;;;4967480;28;20426;-75
2022/07/25 01:05:16;;;;;;;6.72;6.13;;;23.10;55.20;;;;;;4966721;28;20439;-73
2022/07/25 01:07:43;;;;;;;6.40;6.00;;;23.10;54.70;;;;;;4966815;28;20422;-74
2022/07/25 01:10:10;;;;;;;6.50;6.00;;;23.10;55.20;;;;;;4966367;28;20419;-74
2022/07/25 01:12:51;;;;;;;7.10;6.60;;;23.10;54.80;;;;;;4967534;28;20726;-74
2022/07/25 01:15:18;;;;;;;7.10;6.60;;;23.10;54.70;;;;;;4967592;28;20458;-74
2022/07/25 01:17:45;;;;;;;6.78;6.28;;;23.10;55.00;;;;;;4970840;28;20461;-74
2022/07/25 01:20:15;;;;;;;7.32;6.82;;;23.00;55.40;;;;;;4969856;28;20447;-73
2022/07/25 01:22:42;;;;;;;7.45;6.75;;;23.00;54.60;;;;;;4970172;28;20420;-73
2022/07/25 01:25:10;;;;;;;7.45;6.95;;;23.00;55.20;;;;;;4972042;28;20419;-73
2022/07/25 01:27:37;;;;;;;7.20;6.60;;;23.00;55.00;;;;;;4970866;28;20430;-73
2022/07/25 01:30:06;;;;;;;6.80;6.20;;;22.90;56.30;;;;;;4969876;28;20479;-73
2022/07/25 01:32:33;;;;;;;7.15;6.65;;;22.90;56.00;;;;;;4970658;28;20430;-73
2022/07/25 01:34:59;;;;;;;7.00;6.50;;;22.90;55.60;;;;;;4970342;28;20427;-73
2022/07/25 01:37:28;;;;;;;7.00;6.50;;;22.90;55.40;;;;;;4970069;28;20460;-73
2022/07/25 01:39:55;;;;;;;6.38;5.88;;;22.90;55.90;;;;;;4970448;28;20440;-73
2022/07/25 01:42:22;;;;;;;6.63;6.03;;;22.80;56.30;;;;;;4970462;28;20426;-73
2022/07/25 01:44:49;;;;;;;7.30;6.60;;;22.80;56.60;;;;;;4970895;28;20426;-73
2022/07/25 01:47:16;;;;;;;7.28;6.68;;;22.80;56.50;;;;;;4970102;28;20424;-73
2022/07/25 01:49:43;;;;;;;6.80;6.30;;;22.80;56.70;;;;;;4969922;28;20416;-74
2022/07/25 01:52:10;;;;;;;7.22;6.72;;;22.80;56.10;;;;;;5026823;22;20982;-79
2022/07/25 01:54:38;;;;;;;6.93;6.43;;;22.80;56.00;;;;;;5026590;28;20414;-77
2022/07/25 01:57:05;;;;;;;6.43;5.93;;;22.80;55.90;;;;;;5034070;28;20409;-78
2022/07/25 01:59:33;;;;;;;7.10;6.50;;;22.70;55.80;;;;;;5035127;28;20427;-79
2022/07/25 02:01:59;;;;;;;6.70;6.20;;;22.70;56.00;;;;;;5036711;28;20415;-78
2022/07/25 02:04:26;;;;;;;6.47;6.07;;;22.70;56.60;;;;;;5039420;28;20419;-76
2022/07/25 02:06:53;;;;;;;7.03;6.32;;;22.70;56.60;;;;;;5038148;28;20430;-78
2022/07/25 02:09:20;;;;;;;6.90;6.40;;;22.70;58.10;;;;;;5037509;28;20976;-78
2022/07/25 02:11:48;;;;;;;6.78;6.28;;;22.60;58.10;;;;;;5032137;28;20414;-76
2022/07/25 02:14:14;;;;;;;7.10;6.53;;;22.60;58.00;;;;;;5032591;28;20419;-76
2022/07/25 02:16:41;;;;;;;6.78;6.18;;;22.60;57.80;;;;;;5032617;28;20414;-77
2022/07/25 02:19:08;;;;;;;7.20;6.70;;;22.50;58.00;;;;;;5032533;28;20805;-76
2022/07/25 02:21:35;;;;;;;6.30;5.80;;;22.50;57.10;;;;;;5032190;28;20430;-76
2022/07/25 02:24:02;;;;;;;7.30;6.70;;;22.50;57.60;;;;;;5032491;28;20514;-75
2022/07/25 02:26:29;;;;;;;7.20;6.60;;;22.40;56.90;;;;;;5032010;28;20430;-76
2022/07/25 02:28:57;;;;;;;6.53;6.13;;;22.40;57.50;;;;;;5031952;28;20403;-75
2022/07/25 02:31:24;;;;;;;7.00;6.50;;;22.40;58.20;;;;;;5031632;28;20426;-76
2022/07/25 02:33:50;;;;;;;6.70;6.20;;;22.40;57.80;;;;;;5032306;28;20419;-76
2022/07/25 02:36:17;;;;;;;7.80;7.10;;;22.40;58.60;;;;;;5027634;28;20423;-77
2022/07/25 02:38:44;;;;;;;7.18;6.68;;;22.40;58.80;;;;;;4992626;28;20433;-76
2022/07/25 02:41:11;;;;;;;7.20;6.70;;;22.40;57.90;;;;;;4992020;28;20445;-75
2022/07/25 02:43:38;;;;;;;6.72;6.13;;;22.30;58.80;;;;;;4992673;28;20442;-78
2022/07/25 02:46:06;;;;;;;7.23;6.73;;;22.30;58.60;;;;;;4992518;28;20501;-75
2022/07/25 02:48:33;;;;;;;6.75;6.25;;;22.30;57.70;;;;;;4992558;28;21111;-76
2022/07/25 02:50:59;;;;;;;7.20;6.60;;;22.20;58.60;;;;;;4991403;28;20418;-78
2022/07/25 02:53:26;;;;;;;7.32;6.72;;;22.20;58.40;;;;;;4992104;28;20426;-76
2022/07/25 02:55:53;;;;;;;7.00;6.40;;;22.20;59.30;;;;;;4992020;28;20433;-79
2022/07/25 02:58:20;;;;;;;6.95;6.35;;;22.20;58.30;;;;;;4992195;28;20418;-76
2022/07/25 03:00:46;;;;;;;7.15;6.55;;;22.20;58.90;;;;;;4991232;28;20438;-75
2022/07/25 03:03:15;;;;;;;7.00;6.50;;;22.20;58.80;;;;;;4992825;28;20449;-77
2022/07/25 03:05:41;;;;;;;6.75;6.35;;;22.20;58.90;;;;;;4996816;28;20941;-76
2022/07/25 03:08:08;;;;;;;6.50;6.10;;;22.20;59.00;;;;;;4999285;28;20414;-76
2022/07/25 03:10:36;;;;;;;7.30;6.80;;;22.10;59.30;;;;;;5014702;28;20481;-74
2022/07/25 03:13:03;;;;;;;7.50;6.90;;;22.10;59.30;;;;;;5015513;28;20468;-75
2022/07/25 03:15:29;;;;;;;7.18;6.57;;;22.10;59.40;;;;;;5014540;28;20584;-76
2022/07/25 03:17:56;;;;;;;7.30;6.70;;;22.00;58.70;;;;;;5015304;28;20462;-74
2022/07/25 03:20:25;;;;;;;7.40;6.80;;;22.00;59.20;;;;;;5014464;28;20470;-73
2022/07/25 03:22:51;;;;;;;7.20;6.70;;;21.90;58.80;;;;;;5007600;28;20454;-79
2022/07/25 03:25:18;;;;;;;7.47;6.78;;;21.90;59.00;;;;;;4993858;28;20445;-75
2022/07/25 03:27:45;;;;;;;7.35;6.75;;;21.90;58.90;;;;;;4992521;28;20788;-74
2022/07/25 03:30:13;;;;;;;7.10;6.65;;;21.90;58.70;;;;;;4992238;28;20738;-75
2022/07/25 03:32:40;;;;;;;6.60;6.10;;;21.90;58.90;;;;;;4991689;28;20881;-76
2022/07/25 03:35:08;;;;;;;7.53;6.93;;;21.90;58.60;;;;;;4991460;28;20905;-76
2022/07/25 03:37:36;;;;;;;6.57;6.18;;;21.90;58.20;;;;;;4991159;28;20438;-75
2022/07/25 03:40:03;;;;;;;7.30;6.70;;;21.90;58.20;;;;;;4990936;28;20435;-78
2022/07/25 03:42:30;;;;;;;7.18;6.68;;;21.90;58.60;;;;;;4991812;28;20443;-78
2022/07/25 03:44:57;;;;;;;7.03;6.50;;;21.90;58.40;;;;;;4991452;28;20496;-79
2022/07/25 03:47:23;;;;;;;7.70;7.10;;;21.80;58.10;;;;;;4991533;28;20444;-76
2022/07/25 03:49:51;;;;;;;6.85;6.30;;;21.80;58.40;;;;;;4991996;28;20422;-76
2022/07/25 03:52:17;;;;;;;7.28;6.68;;;21.80;58.10;;;;;;4991280;28;20466;-75
2022/07/25 03:54:45;;;;;;;7.43;6.82;;;21.70;58.20;;;;;;4992138;28;20429;-76
2022/07/25 03:57:12;;;;;;;8.05;7.38;;;21.70;58.30;;;;;;4991475;28;20425;-77
2022/07/25 03:59:39;;;;;;;7.30;6.70;;;21.70;58.70;;;;;;4991609;28;20418;-77
2022/07/25 04:02:06;;;;;;;7.60;7.10;;;21.70;58.70;;;;;;4991550;28;20418;-76
2022/07/25 04:04:33;;;;;;;7.20;6.70;;;21.70;58.60;;;;;;4991362;28;20811;-76
2022/07/25 04:06:59;;;;;;;7.00;6.50;;;21.70;58.30;;;;;;4989994;28;20523;-77
2022/07/25 04:09:26;;;;;;;7.00;6.50;;;21.70;58.30;;;;;;4991400;28;20922;-76
2022/07/25 04:11:54;;;;;;;7.63;7.03;;;21.70;59.40;;;;;;5003384;28;20478;-76
2022/07/25 04:14:22;;;;;;;8.02;7.45;;;21.60;59.60;;;;;;5009432;28;20498;-76
2022/07/25 04:16:48;;;;;;;7.07;6.57;;;21.60;59.70;;;;;;4998560;28;20505;-78
2022/07/25 04:19:15;;;;;;;7.43;6.82;;;21.60;60.30;;;;;;4993495;28;20916;-79
2022/07/25 04:21:42;;;;;;;7.75;7.25;;;21.60;60.30;;;;;;4991134;28;20431;-76
2022/07/25 04:24:09;;;;;;;7.50;6.88;;;21.60;59.80;;;;;;4991803;28;20433;-77
2022/07/25 04:26:35;;;;;;;7.35;6.65;;;21.60;59.70;;;;;;4991753;28;20429;-76
2022/07/25 04:29:03;;;;;;;7.38;6.78;;;21.60;60.30;;;;;;4994001;28;20433;-75
2022/07/25 04:31:30;;;;;;;7.22;6.63;;;21.60;60.20;;;;;;5013337;28;20498;-75
2022/07/25 04:33:57;;;;;;;6.90;6.40;;;21.70;59.80;;;;;;5014092;28;20470;-75
2022/07/25 04:36:25;;;;;;;7.40;6.80;;;21.70;59.10;;;;;;5008410;28;20773;-77
2022/07/25 04:38:52;;;;;;;7.00;6.40;;;21.70;59.50;;;;;;4992241;28;20423;-76
2022/07/25 04:41:19;;;;;;;7.28;6.78;;;21.70;59.50;;;;;;4991460;28;20426;-76
2022/07/25 04:43:46;;;;;;;7.10;6.60;;;21.70;58.30;;;;;;4992277;28;20900;-77
2022/07/25 04:46:18;;;;;;;7.88;7.18;;;21.70;58.90;;;;;;4990505;28;20528;-77
2022/07/25 04:48:45;;;;;;;6.97;6.47;;;21.70;58.30;;;;;;4993160;28;20909;-76
2022/07/25 04:51:11;;;;;;;6.80;6.30;;;21.80;59.10;;;;;;4992917;28;20504;-77
2022/07/25 04:53:38;;;;;;;6.85;6.25;;;21.90;58.20;;;;;;4992385;28;20418;-77
2022/07/25 04:56:05;;;;;;;7.10;6.50;;;22.00;58.00;;;;;;4991319;28;21025;-75
2022/07/25 04:58:32;;;;;;;7.28;6.78;;;22.10;57.10;;;;;;4992034;28;20422;-75
2022/07/25 05:00:59;;;;;;;7.10;6.60;;;22.10;57.40;;;;;;4990803;28;20940;-77
2022/07/25 05:03:27;;;;;;;6.70;6.20;;;22.10;56.70;;;;;;4990973;28;20429;-76
2022/07/25 05:05:54;;;;;;;6.80;6.20;;;22.10;56.60;;;;;;4990767;28;20414;-77
2022/07/25 05:08:21;;;;;;;6.93;6.33;;;22.20;56.40;;;;;;4991965;28;20444;-77
2022/07/25 05:10:48;;;;;;;6.57;6.07;;;22.30;56.20;;;;;;4990695;28;20904;-76
2022/07/25 05:13:15;;;;;;;6.70;6.10;;;22.30;56.20;;;;;;4991188;28;20433;-76
2022/07/25 05:15:41;;;;;;;6.75;6.22;;;22.40;56.40;;;;;;4990550;28;20410;-77
2022/07/25 05:18:08;;;;;;;6.40;5.80;;;22.50;56.00;;;;;;4990346;28;20421;-75
2022/07/25 05:20:36;;;;;;;7.07;6.47;;;22.50;55.70;;;;;;4988849;28;20936;-78
2022/07/25 05:23:03;;;;;;;6.90;6.40;;;22.50;55.70;;;;;;4990695;28;20423;-76
2022/07/25 05:25:30;;;;;;;7.03;6.45;;;22.60;55.40;;;;;;4990531;28;20415;-76
2022/07/25 05:27:57;;;;;;;6.70;6.20;;;22.60;55.00;;;;;;4990820;28;21044;-75
2022/07/25 05:30:24;;;;;;;6.80;6.10;;;22.70;55.30;;;;;;4989881;28;20432;-76
2022/07/25 05:32:51;;;;;;;6.55;5.95;;;22.70;55.20;;;;;;4991026;28;20410;-77
2022/07/25 05:35:18;;;;;;;7.10;6.50;;;22.70;54.60;;;;;;4990291;28;20426;-74
2022/07/25 05:37:46;;;;;;;7.00;6.40;;;22.70;54.80;;;;;;5008444;28;20418;-77
2022/07/25 05:40:13;;;;;;;6.63;6.13;;;22.70;55.20;;;;;;5012632;28;20486;-75
2022/07/25 05:42:40;;;;;;;6.40;5.90;;;22.80;55.20;;;;;;5013020;28;20509;-75
2022/07/25 05:45:08;;;;;;;6.40;5.97;;;22.80;55.70;;;;;;5013698;28;20526;-76
2022/07/25 05:47:34;;;;;;;6.40;5.80;;;22.80;55.40;;;;;;5013711;28;20490;-77
2022/07/25 05:50:01;;;;;;;7.18;6.47;;;22.80;56.20;;;;;;5013329;28;20474;-74
2022/07/25 05:52:28;;;;;;;6.70;6.10;;;22.80;56.00;;;;;;5013248;28;20414;-76
2022/07/25 05:54:56;;;;;;;7.15;6.55;;;22.90;55.60;;;;;;5000677;28;20421;-76
2022/07/25 05:57:23;;;;;;;6.60;6.00;;;22.90;55.50;;;;;;4995406;28;20862;-77
2022/07/25 05:59:50;;;;;;;6.60;6.10;;;23.00;54.70;;;;;;4997889;28;20422;-76
2022/07/25 06:02:16;;;;;;;7.28;6.68;;;23.00;55.10;;;;;;5015213;28;20744;-77
2022/07/25 06:04:43;;;;;;;6.80;6.20;;;23.00;54.90;;;;;;5001707;28;20904;-77
2022/07/25 06:07:10;;;;;;;6.33;5.80;;;23.10;54.80;;;;;;5002228;28;20422;-79
2022/07/25 06:09:37;;;;;;;6.43;5.93;;;23.10;54.80;;;;;;5002790;28;20422;-76
2022/07/25 06:12:06;;;;;;;6.60;6.00;;;23.10;55.00;;;;;;5004158;28;20453;-77
2022/07/25 06:14:33;;;;;;;6.72;6.03;;;23.10;54.70;;;;;;5004260;28;20424;-77
2022/07/25 06:17:00;;;;;;;6.13;5.63;;;23.20;55.30;;;;;;5001722;28;20481;-77
2022/07/25 06:19:27;;;;;;;6.30;5.80;;;23.20;54.20;;;;;;5001879;28;20918;-79
2022/07/25 06:21:53;;;;;;;6.85;6.25;;;23.30;54.40;;;;;;5003565;28;20429;-78
2022/07/25 06:24:20;;;;;;;6.40;5.80;;;23.30;54.70;;;;;;4997546;28;20440;-76
2022/07/25 06:26:47;;;;;;;6.57;6.07;;;23.50;55.10;;;;;;4998042;28;20436;-78
2022/07/25 06:29:15;;;;;;;6.85;6.32;;;23.50;53.50;;;;;;4997174;28;20418;-78
2022/07/25 06:31:42;;;;;;;7.40;5.90;;;23.60;53.20;;;;;;4998849;28;20410;-78
2022/07/25 06:34:09;;;;;;;7.25;6.55;;;23.70;53.50;;;;;;5010506;28;20486;-76
2022/07/25 06:36:35;;;;;;;6.72;6.22;;;23.80;53.50;;;;;;5013525;28;20514;-77
2022/07/25 06:39:02;;;;;;;6.30;5.80;;;23.90;52.70;;;;;;5014242;28;20446;-78
2022/07/25 06:41:29;;;;;;;6.60;6.10;;;24.10;53.00;;;;;;5012163;28;20515;-78
2022/07/25 06:43:56;;;;;;;6.30;5.80;;;24.20;52.60;;;;;;5011576;28;20414;-77
2022/07/25 06:46:28;;;;;;;6.40;5.80;;;24.30;52.20;;;;;;4998785;28;20745;-76
2022/07/25 06:48:55;;;;;;;6.07;5.57;;;24.40;52.80;;;;;;4998934;28;20522;-77
2022/07/25 06:51:22;;;;;;;6.10;5.60;;;24.60;51.90;;;;;;4997373;28;20960;-74
2022/07/25 06:53:49;;;;;;;6.38;5.82;;;24.70;51.90;;;;;;4996821;28;20422;-77
2022/07/25 06:56:16;;;;;;;6.57;5.90;;;24.80;51.20;;;;;;4996845;28;20433;-76
2022/07/25 06:58:43;;;;;;;6.00;5.60;;;25.00;52.10;;;;;;4996564;28;20421;-76
2022/07/25 07:01:10;;;;;;;5.90;5.50;;;25.10;51.10;;;;;;4998173;28;20426;-76
2022/07/25 07:03:38;;;;;;;6.30;5.80;;;25.10;50.50;;;;;;4996950;28;20437;-78
2022/07/25 07:06:06;;;;;;;6.65;6.07;;;25.20;51.10;;;;;;4996348;28;20840;-76
2022/07/25 07:08:33;;;;;;;6.00;5.50;;;25.20;51.50;;;;;;4999728;28;20418;-75
2022/07/25 07:11:00;;;;;;;6.57;5.97;;;25.30;51.10;;;;;;4997148;28;20418;-75
2022/07/25 07:13:27;;;;;;;6.03;5.20;;;25.50;50.80;;;;;;4997522;28;20469;-76
2022/07/25 07:15:54;;;;;;;6.38;5.88;;;25.60;50.20;;;;;;4998002;28;20446;-74
2022/07/25 07:18:22;;;;;;;6.00;5.50;;;25.80;50.40;;;;;;4998433;28;20425;-77
2022/07/25 07:20:50;;;;;;;6.00;5.50;;;25.90;50.10;;;;;;4995338;28;20461;-77
2022/07/25 07:23:17;;;;;;;6.30;5.70;;;26.00;49.40;;;;;;4996535;28;20517;-76
2022/07/25 07:25:45;;;;;;;5.78;5.22;;;26.10;49.30;;;;;;4996071;28;20437;-77
2022/07/25 07:28:12;;;;;;;6.20;5.80;;;26.30;49.10;;;;;;4995640;28;20461;-77
2022/07/25 07:30:39;;;;;;;5.68;5.28;;;26.40;48.90;;;;;;4995057;28;20422;-77
2022/07/25 07:33:06;;;;;;;6.15;5.65;;;26.80;48.20;;;;;;4996514;28;20419;-77
2022/07/25 07:35:33;;;;;;;6.20;5.70;;;27.10;47.60;;;;;;4995641;28;20437;-76
2022/07/25 07:38:01;;;;;;;5.60;5.20;;;27.50;47.00;;;;;;4996566;28;20502;-76
2022/07/25 07:40:28;;;;;;;5.95;5.45;;;27.80;45.80;;;;;;4995290;28;20434;-76
2022/07/25 07:42:55;;;;;;;5.78;5.20;;;27.90;45.60;;;;;;4996161;28;20903;-78
2022/07/25 07:45:24;;;;;;;6.32;5.40;;;28.00;45.10;;;;;;4996009;28;20426;-77
2022/07/25 07:47:53;;;;;;;5.95;5.45;;;28.20;45.50;;;;;;4996031;28;21135;-77
2022/07/25 07:50:22;;;;;;;5.55;5.15;;;28.30;44.60;;;;;;4995099;28;20776;-77
2022/07/25 07:52:50;;;;;;;6.68;6.10;;;28.30;44.70;;;;;;5018164;22;20438;-74
2022/07/25 07:58:02;;;;;;;5.75;5.30;;;28.50;44.30;;;;;;5007029;28;20404;-74
2022/07/25 08:00:30;;;;;;;8.35;7.75;;;28.50;44.30;;;;;;5005614;28;20417;-74
2022/07/25 08:02:59;;;;;;;6.30;5.73;;;28.60;43.70;;;;;;5006911;28;20858;-74
2022/07/25 08:05:27;;;;;;;6.40;5.90;;;28.70;44.20;;;;;;5006252;28;20865;-73
2022/07/25 08:07:55;;;;;;;5.53;5.13;;;28.80;44.20;;;;;;5006398;28;20419;-74
2022/07/25 08:10:25;;;;;;;5.10;4.70;;;28.90;42.20;;;;;;5006126;28;20589;-75
2022/07/25 08:12:53;;;;;;;6.53;5.82;;;29.10;42.20;;;;;;5006603;28;20409;-74
2022/07/25 08:15:21;;;;;;;5.50;5.10;;;29.10;41.40;;;;;;5006482;28;20424;-75
2022/07/25 08:17:50;;;;;;;5.53;5.13;;;29.10;41.10;;;;;;5006427;28;20465;-75
2022/07/25 08:20:18;;;;;;;5.40;4.90;;;29.20;40.70;;;;;;5005091;28;20440;-75
2022/07/25 08:22:46;;;;;;;5.40;5.00;;;29.20;40.90;;;;;;5005152;28;20469;-74
2022/07/25 08:25:16;;;;;;;5.65;5.18;;;29.10;40.20;;;;;;5006084;28;20430;-75
2022/07/25 08:27:45;;;;;;;5.20;4.90;;;29.10;39.90;;;;;;5006173;28;20453;-75
2022/07/25 08:30:13;;;;;;;5.55;5.15;;;29.10;39.50;;;;;;5005228;28;20412;-75
2022/07/25 08:32:47;;;;;;;5.50;5.00;;;29.00;39.70;;;;;;5005902;28;20497;-75
2022/07/25 08:35:14;;;;;;;5.40;4.93;;;29.00;40.70;;;;;;5005934;28;20428;-74
2022/07/25 08:37:41;;;;;;;5.63;5.03;;;28.90;39.90;;;;;;5005535;28;20440;-75
2022/07/25 08:40:09;;;;;;;6.30;4.97;;;28.90;39.50;;;;;;5005142;28;20438;-76
2022/07/25 08:42:37;;;;;;;5.60;5.13;;;28.90;39.30;;;;;;5006166;28;20434;-75
2022/07/25 08:45:08;;;;;;;6.10;5.60;;;28.80;39.50;;;;;;5006568;28;20552;-75
2022/07/25 08:47:35;;;;;;;5.47;5.03;;;28.80;40.00;;;;;;5006295;28;20508;-72
2022/07/25 08:50:04;;;;;;;6.10;4.90;;;28.70;39.40;;;;;;5005371;28;20468;-76
2022/07/25 08:52:33;;;;;;;10.13;6.05;;;28.60;39.70;;;;;;5004677;28;20758;-74
2022/07/25 08:55:01;;;;;;;5.68;5.03;;;28.60;40.20;;;;;;5005864;28;20428;-73
2022/07/25 08:57:27;;;;;;;5.50;5.00;;;28.60;40.50;;;;;;5005543;28;20421;-73
2022/07/25 08:59:57;;;;;;;5.40;5.00;;;28.70;39.80;;;;;;5005563;28;20477;-73
2022/07/25 09:02:27;;;;;;;5.32;4.90;;;28.70;39.30;;;;;;5003749;28;20436;-74
2022/07/25 09:04:53;;;;;;;5.68;5.25;;;28.50;39.60;;;;;;4986411;28;20432;-73
2022/07/25 09:07:30;;;;;;;5.23;4.83;;;28.50;40.70;;;;;;4984808;28;20414;-73
2022/07/25 09:09:57;;;;;;;5.40;5.00;;;28.40;40.10;;;;;;4985749;28;20418;-73
2022/07/25 09:12:27;;;;;;;4.93;4.50;;;28.40;40.10;;;;;;4986029;28;20446;-74
2022/07/25 09:14:54;;;;;;;5.07;4.68;;;28.50;40.30;;;;;;4986907;28;20480;-73
2022/07/25 09:17:21;;;;;;;5.10;4.70;;;28.80;40.60;;;;;;4986327;28;20448;-73
2022/07/25 09:19:54;;;;;;;5.40;5.00;;;29.30;39.40;;;;;;4986717;28;20878;-73
2022/07/25 09:22:21;;;;;;;5.50;5.00;;;29.30;38.50;;;;;;4984553;28;20441;-74
2022/07/25 09:24:48;;;;;;;5.40;5.00;;;29.30;39.20;;;;;;4986670;28;20422;-73
2022/07/25 09:27:16;;;;;;;5.40;4.90;;;29.20;39.20;;;;;;4986126;28;20450;-74
2022/07/25 09:29:44;;;;;;;5.28;4.88;;;29.40;37.80;;;;;;4986856;28;20437;-74
2022/07/25 09:32:16;;;;;;;5.65;5.15;;;29.60;38.80;;;;;;4984869;28;20422;-76
2022/07/25 09:34:45;;;;;;;6.50;5.28;;;30.00;38.60;;;;;;4986443;28;20990;-74
2022/07/25 09:37:15;;;;;;;5.22;4.72;;;30.50;37.90;;;;;;4986048;28;20425;-73
2022/07/25 09:39:44;;;;;;;5.37;4.97;;;31.00;36.00;;;;;;4990069;28;20418;-74
2022/07/25 09:42:19;;;;;;;5.20;4.80;;;31.30;35.50;;;;;;4988966;28;20440;-74
2022/07/25 09:44:58;;;;;;;5.20;4.70;;;31.20;35.60;;;;;;4990069;28;20422;-74
2022/07/25 09:47:25;;;;;;;5.10;4.65;;;31.10;35.10;;;;;;4989958;28;20513;-74
2022/07/25 09:49:52;;;;;;;5.20;4.70;;;30.90;36.80;;;;;;4989732;28;20422;-74
2022/07/25 09:52:20;;;;;;;4.90;4.60;;;30.80;36.90;;;;;;4987878;28;20427;-75
2022/07/25 09:54:47;;;;;;;5.50;4.90;;;30.60;37.70;;;;;;4989905;28;20417;-75
2022/07/25 09:57:13;;;;;;;5.88;5.47;;;30.40;38.00;;;;;;4989254;28;20450;-75
2022/07/25 09:59:41;;;;;;;5.30;4.90;;;30.20;37.80;;;;;;4989494;28;20422;-74
2022/07/25 10:02:11;;;;;;;5.53;5.22;;;29.60;38.40;;;;;;4988587;28;20430;-75
2022/07/25 10:04:45;;;;;;;5.63;5.22;;;29.30;39.70;;;;;;4989696;28;20425;-75
2022/07/25 10:07:15;;;;;;;5.90;5.40;;;28.90;40.20;;;;;;4988172;28;21046;-75
2022/07/25 10:09:45;;;;;;;6.85;5.65;;;28.70;40.90;;;;;;4989510;28;20418;-73
2022/07/25 10:12:14;;;;;;;5.88;5.47;;;28.40;42.10;;;;;;4988360;28;20426;-75
2022/07/25 10:14:41;;;;;;;5.75;5.10;;;28.10;43.00;;;;;;4989530;28;20602;-74
2022/07/25 10:17:08;;;;;;;5.80;5.40;;;27.80;44.00;;;;;;4989258;28;20489;-75
2022/07/25 10:19:39;;;;;;;6.13;5.53;;;27.60;46.70;;;;;;4989477;28;20421;-75
2022/07/25 10:22:06;;;;;;;6.55;5.85;;;27.40;47.40;;;;;;4986848;28;20426;-75
2022/07/25 10:24:34;;;;;;;6.68;6.07;;;27.10;50.20;;;;;;4989277;28;20513;-75
2022/07/25 10:27:08;;;;;;;6.70;5.97;;;26.70;50.80;;;;;;4989302;28;20419;-75
2022/07/25 10:29:35;;;;;;;6.10;5.68;;;26.40;53.90;;;;;;4989296;28;20497;-74
2022/07/25 10:32:06;;;;;;;6.32;5.82;;;26.20;57.20;;;;;;4987790;28;20440;-75
2022/07/25 10:34:35;;;;;;;7.20;6.20;;;26.00;54.40;;;;;;4989151;28;20424;-74
2022/07/25 10:37:10;;;;;;;7.90;7.10;;;25.90;56.70;;;;;;4987273;28;20437;-75
2022/07/25 10:39:39;;;;;;;7.30;6.60;;;25.90;56.60;;;;;;4988769;28;20505;-74
2022/07/25 10:42:12;;;;;;;6.40;5.80;;;26.10;56.00;;;;;;4987767;28;20454;-74
2022/07/25 10:44:43;;;;;;;5.95;5.45;;;26.20;52.70;;;;;;4989498;28;20440;-75
2022/07/25 10:47:11;;;;;;;6.35;5.68;;;26.40;51.40;;;;;;4988600;28;20425;-74
2022/07/25 10:49:40;;;;;;;5.93;5.43;;;26.60;53.10;;;;;;4988839;28;20422;-73
2022/07/25 10:52:07;;;;;;;6.32;5.57;;;26.70;48.30;;;;;;4986451;28;20505;-74
2022/07/25 10:54:35;;;;;;;5.80;5.20;;;26.60;50.60;;;;;;4988803;28;20885;-73
2022/07/25 10:57:04;;;;;;;5.30;4.90;;;26.70;50.40;;;;;;4989178;28;20418;-73
2022/07/25 10:59:34;;;;;;;5.68;5.18;;;26.70;48.70;;;;;;4989181;28;20418;-73
2022/07/25 11:02:03;;;;;;;5.20;4.80;;;26.90;46.90;;;;;;4987918;28;20434;-74
2022/07/25 11:04:31;;;;;;;5.72;4.70;;;27.10;47.00;;;;;;5009409;28;20492;-74
2022/07/25 11:06:58;;;;;;;5.20;4.90;;;27.20;46.80;;;;;;5006348;28;20955;-74
2022/07/25 11:09:27;;;;;;;5.30;4.90;;;27.30;45.80;;;;;;5008323;28;20426;-75
2022/07/25 11:11:56;;;;;;;5.35;4.90;;;27.50;46.50;;;;;;5007176;28;20434;-75
2022/07/25 11:14:25;;;;;;;5.00;4.60;;;27.80;45.50;;;;;;5008243;28;20953;-74
2022/07/25 11:16:55;;;;;;;5.05;4.65;;;28.20;45.30;;;;;;5008201;28;20480;-74
2022/07/25 11:19:24;;;;;;;5.30;4.80;;;28.70;43.90;;;;;;5008081;28;20797;-73
2022/07/25 11:21:53;;;;;;;4.75;4.45;;;28.70;42.00;;;;;;5005357;28;20419;-75
2022/07/25 11:24:20;;;;;;;4.97;4.45;;;28.50;42.70;;;;;;5007628;28;20515;-74
2022/07/25 11:26:48;;;;;;;4.80;4.50;;;28.50;43.90;;;;;;5007541;28;20412;-73
2022/07/25 11:29:19;;;;;;;5.95;4.80;;;28.60;42.40;;;;;;5007988;28;20425;-73
2022/07/25 11:31:54;;;;;;;5.25;4.60;;;28.70;42.70;;;;;;5005972;28;20874;-72
2022/07/25 11:34:24;;;;;;;4.82;4.40;;;28.50;41.70;;;;;;5007356;28;20766;-74
2022/07/25 11:36:54;;;;;;;4.65;4.25;;;28.30;41.40;;;;;;5005979;28;20428;-74
2022/07/25 11:39:21;;;;;;;4.70;4.30;;;28.00;42.10;;;;;;5007656;28;20424;-72
2022/07/25 11:41:59;;;;;;;4.43;4.13;;;27.90;42.50;;;;;;5006204;28;20439;-74
2022/07/25 11:44:35;;;;;;;4.97;4.20;;;27.80;42.10;;;;;;5007486;28;20463;-75
2022/07/25 11:47:03;;;;;;;5.45;4.80;;;27.80;42.70;;;;;;5007038;28;20421;-75
2022/07/25 11:49:30;;;;;;;6.28;4.30;;;27.90;41.70;;;;;;5007857;28;20427;-75
2022/07/25 11:51:57;;;;;;;4.60;4.20;;;27.90;42.00;;;;;;5004125;28;20473;-74
2022/07/25 11:54:24;;;;;;;4.10;3.80;;;27.90;41.70;;;;;;5007570;28;20413;-75
2022/07/25 11:56:51;;;;;;;4.30;3.90;;;28.10;42.70;;;;;;5006771;28;20427;-74
2022/07/25 11:59:18;;;;;;;4.97;3.90;;;28.30;40.80;;;;;;5007049;28;20412;-75
2022/07/25 12:01:46;;;;;;;4.75;4.03;;;28.60;40.00;;;;;;5005012;28;20435;-73
2022/07/25 12:04:17;;;;;;;4.40;4.00;;;28.70;39.80;;;;;;4990280;28;20500;-74
2022/07/25 12:06:45;;;;;;;3.72;3.42;;;28.80;39.00;;;;;;4985730;28;20430;-73
2022/07/25 12:09:14;;;;;;;4.53;3.47;;;28.80;38.60;;;;;;4987563;28;20418;-73
2022/07/25 12:11:41;;;;;;;4.07;3.78;;;28.80;38.60;;;;;;4985663;28;20415;-75
2022/07/25 12:14:08;;;;;;;4.10;3.30;;;28.80;38.30;;;;;;4987369;28;20418;-76
2022/07/25 12:16:36;;;;;;;3.50;3.17;;;28.70;39.30;;;;;;4986797;28;20418;-75
2022/07/25 12:19:04;;;;;;;3.38;3.00;;;28.60;38.40;;;;;;4987403;28;20472;-75
2022/07/25 12:21:32;;;;;;;4.00;3.63;;;28.50;39.50;;;;;;4984305;28;20418;-77
2022/07/25 12:23:59;;;;;;;3.40;3.10;;;28.50;39.10;;;;;;4986722;28;20438;-75
2022/07/25 12:26:26;;;;;;;3.92;3.53;;;28.40;38.20;;;;;;4986600;28;20423;-75
2022/07/25 12:28:53;;;;;;;4.82;3.25;;;28.40;38.80;;;;;;4987206;28;20419;-75
2022/07/25 12:31:19;;;;;;;3.80;3.20;;;28.40;38.90;;;;;;4985258;28;20505;-75
2022/07/25 12:33:47;;;;;;;3.70;3.40;;;28.30;39.90;;;;;;4986891;28;20456;-75
2022/07/25 12:36:14;;;;;;;4.83;3.20;;;28.20;39.20;;;;;;4985037;28;20982;-75
2022/07/25 12:38:42;;;;;;;4.00;3.70;;;28.10;39.60;;;;;;4987079;28;20414;-75
2022/07/25 12:41:09;;;;;;;4.03;3.70;;;28.10;40.00;;;;;;4984837;28;20425;-75
2022/07/25 12:43:36;;;;;;;3.97;3.58;;;28.20;39.90;;;;;;4986721;28;20430;-74
2022/07/25 12:46:05;;;;;;;3.80;3.40;;;28.40;40.10;;;;;;4986538;28;20526;-75
2022/07/25 12:48:32;;;;;;;3.80;2.85;;;28.50;39.80;;;;;;4986608;28;20429;-75
2022/07/25 12:50:59;;;;;;;3.40;3.10;;;28.50;40.80;;;;;;4983587;28;20462;-75
2022/07/25 12:53:26;;;;;;;3.90;2.83;;;28.60;40.30;;;;;;4986625;28;20501;-75